createdAt,value
2018-04-26T00:05:27.108Z,1.60
2018-04-26T00:26:02.378Z,1.73
2018-04-26T00:46:39.493Z,1.93
2018-04-26T01:07:14.766Z,2.10
2018-04-26T01:27:49.121Z,1.93
2018-04-26T01:48:24.382Z,1.80
2018-04-26T02:08:59.818Z,1.57
2018-04-26T02:29:37.394Z,1.70
2018-04-26T02:50:12.046Z,2.00
2018-04-26T03:10:47.322Z,2.10
2018-04-26T03:31:25.792Z,2.20
2018-04-26T03:52:01.198Z,1.83
2018-04-26T04:12:38.052Z,2.00
2018-04-26T04:33:11.175Z,2.20
2018-04-26T04:53:44.295Z,2.10
2018-04-26T05:14:28.055Z,2.10
2018-04-26T05:35:00.334Z,1.67
2018-04-26T05:55:33.415Z,2.17
2018-04-26T06:16:08.457Z,2.00
2018-04-26T06:36:44.652Z,1.83
2018-04-26T06:57:17.768Z,1.90
2018-04-26T07:17:56.116Z,1.60
2018-04-26T07:38:29.234Z,1.93
2018-04-26T07:59:04.509Z,1.90
2018-04-26T08:19:41.700Z,1.40
2018-04-26T08:40:19.048Z,1.60
2018-04-26T09:00:52.167Z,1.87
2018-04-26T09:21:26.519Z,1.50
2018-04-26T09:42:04.559Z,1.43
2018-04-26T10:02:45.051Z,1.50
2018-04-26T10:23:17.557Z,1.50
2018-04-26T10:43:51.299Z,1.37
2018-04-26T11:04:25.641Z,1.77
2018-04-26T11:24:59.121Z,1.90
2018-04-26T11:45:35.373Z,1.57
2018-04-26T12:06:11.610Z,1.90
2018-04-26T12:26:46.843Z,2.27
2018-04-26T12:47:19.046Z,1.50
2018-04-26T13:07:53.045Z,1.57
2018-04-26T13:28:28.540Z,1.70
2018-04-26T13:49:02.292Z,1.40
2018-04-26T14:09:35.717Z,2.10
2018-04-26T14:30:08.838Z,1.67
2018-04-26T14:50:43.187Z,1.60
2018-04-26T15:11:16.310Z,2.10
2018-04-26T15:31:49.839Z,1.53
2018-04-26T15:52:35.768Z,1.60
2018-04-26T16:13:31.551Z,1.30
2018-04-26T16:34:19.482Z,1.30
2018-04-26T16:54:56.911Z,1.10
2018-04-26T17:15:29.363Z,1.47
2018-04-26T17:36:03.580Z,1.00
2018-04-26T17:56:39.022Z,1.80
2018-04-26T18:17:12.782Z,1.60
2018-04-26T18:37:44.986Z,1.90
2018-04-26T18:58:18.633Z,2.00
2018-04-26T19:18:53.420Z,1.73
2018-04-26T19:39:30.488Z,2.07
2018-04-26T20:00:02.125Z,2.83
2018-04-26T20:20:37.351Z,2.27
2018-04-26T20:41:13.594Z,2.33
2018-04-26T21:01:47.579Z,2.50
2018-04-26T21:22:24.697Z,2.67
2018-04-26T21:43:01.197Z,2.90
2018-04-26T22:03:39.232Z,2.77
2018-04-26T22:24:11.435Z,3.20
2018-04-26T22:44:46.702Z,2.97
2018-04-26T23:05:24.239Z,2.57
2018-04-26T23:25:57.244Z,3.67
2018-04-26T23:46:33.448Z,3.27
